sensor_id;sensor_type;location;lat;lon;timestamp;temperature;humidity
27114;DHT22;14648;49.730;8.614;2023-11-19T00:00:56;9.20;73.90
27114;DHT22;14648;49.730;8.614;2023-11-19T00:03:22;9.30;74.10
27114;DHT22;14648;49.730;8.614;2023-11-19T00:05:47;9.30;74.20
27114;DHT22;14648;49.730;8.614;2023-11-19T00:08:13;9.30;74.10
27114;DHT22;14648;49.730;8.614;2023-11-19T00:10:39;9.30;74.10
27114;DHT22;14648;49.730;8.614;2023-11-19T00:13:04;9.30;74.10
27114;DHT22;14648;49.730;8.614;2023-11-19T00:15:30;9.30;74.10
27114;DHT22;14648;49.730;8.614;2023-11-19T00:17:56;9.30;74.10
27114;DHT22;14648;49.730;8.614;2023-11-19T00:20:21;9.30;74.20
27114;DHT22;14648;49.730;8.614;2023-11-19T00:22:47;9.30;74.30
27114;DHT22;14648;49.730;8.614;2023-11-19T00:25:20;9.40;74.30
27114;DHT22;14648;49.730;8.614;2023-11-19T00:27:51;9.40;74.30
27114;DHT22;14648;49.730;8.614;2023-11-19T00:30:17;9.50;74.40
27114;DHT22;14648;49.730;8.614;2023-11-19T00:32:42;9.50;74.40
27114;DHT22;14648;49.730;8.614;2023-11-19T00:35:08;9.50;74.30
27114;DHT22;14648;49.730;8.614;2023-11-19T00:37:35;9.50;74.40
27114;DHT22;14648;49.730;8.614;2023-11-19T00:40:01;9.50;74.40
27114;DHT22;14648;49.730;8.614;2023-11-19T00:42:30;9.60;74.40
27114;DHT22;14648;49.730;8.614;2023-11-19T00:44:56;9.60;74.40
27114;DHT22;14648;49.730;8.614;2023-11-19T00:47:23;9.60;74.40
27114;DHT22;14648;49.730;8.614;2023-11-19T00:49:49;9.60;74.40
27114;DHT22;14648;49.730;8.614;2023-11-19T00:52:16;9.60;74.40
27114;DHT22;14648;49.730;8.614;2023-11-19T00:54:43;9.70;74.50
27114;DHT22;14648;49.730;8.614;2023-11-19T00:57:08;9.70;74.50
27114;DHT22;14648;49.730;8.614;2023-11-19T00:59:34;9.70;74.50
27114;DHT22;14648;49.730;8.614;2023-11-19T01:02:00;9.70;74.60
27114;DHT22;14648;49.730;8.614;2023-11-19T01:04:34;9.70;74.60
27114;DHT22;14648;49.730;8.614;2023-11-19T01:07:03;9.80;74.60
27114;DHT22;14648;49.730;8.614;2023-11-19T01:09:30;9.80;74.70
27114;DHT22;14648;49.730;8.614;2023-11-19T01:12:00;9.80;74.70
27114;DHT22;14648;49.730;8.614;2023-11-19T01:14:29;9.80;74.70
27114;DHT22;14648;49.730;8.614;2023-11-19T01:16:55;9.80;74.70
27114;DHT22;14648;49.730;8.614;2023-11-19T01:19:21;9.90;75.00
27114;DHT22;14648;49.730;8.614;2023-11-19T01:21:48;9.90;75.00
27114;DHT22;14648;49.730;8.614;2023-11-19T01:24:14;9.90;75.00
27114;DHT22;14648;49.730;8.614;2023-11-19T01:26:41;9.90;75.00
27114;DHT22;14648;49.730;8.614;2023-11-19T01:29:14;10.00;74.90
27114;DHT22;14648;49.730;8.614;2023-11-19T01:31:41;10.00;74.90
27114;DHT22;14648;49.730;8.614;2023-11-19T01:34:07;10.00;74.90
27114;DHT22;14648;49.730;8.614;2023-11-19T01:36:33;10.00;74.90
27114;DHT22;14648;49.730;8.614;2023-11-19T01:38:59;10.00;74.90
27114;DHT22;14648;49.730;8.614;2023-11-19T01:41:25;10.00;75.00
27114;DHT22;14648;49.730;8.614;2023-11-19T01:43:50;10.00;74.90
27114;DHT22;14648;49.730;8.614;2023-11-19T01:46:16;10.10;75.00
27114;DHT22;14648;49.730;8.614;2023-11-19T01:48:45;10.10;75.10
27114;DHT22;14648;49.730;8.614;2023-11-19T01:51:14;10.10;75.10
27114;DHT22;14648;49.730;8.614;2023-11-19T01:53:43;10.10;75.20
27114;DHT22;14648;49.730;8.614;2023-11-19T01:56:10;10.10;75.10
27114;DHT22;14648;49.730;8.614;2023-11-19T01:58:39;10.10;75.20
27114;DHT22;14648;49.730;8.614;2023-11-19T02:01:06;10.10;75.20
27114;DHT22;14648;49.730;8.614;2023-11-19T02:03:33;10.20;75.20
27114;DHT22;14648;49.730;8.614;2023-11-19T02:06:03;10.20;75.20
27114;DHT22;14648;49.730;8.614;2023-11-19T02:08:29;10.10;75.30
27114;DHT22;14648;49.730;8.614;2023-11-19T02:10:55;10.20;75.30
27114;DHT22;14648;49.730;8.614;2023-11-19T02:13:24;10.20;75.60
27114;DHT22;14648;49.730;8.614;2023-11-19T02:15:50;10.20;75.50
27114;DHT22;14648;49.730;8.614;2023-11-19T02:18:20;10.20;75.50
27114;DHT22;14648;49.730;8.614;2023-11-19T02:20:56;10.20;75.50
27114;DHT22;14648;49.730;8.614;2023-11-19T02:23:23;10.20;75.50
27114;DHT22;14648;49.730;8.614;2023-11-19T02:26:12;10.30;75.50
27114;DHT22;14648;49.730;8.614;2023-11-19T02:28:42;10.30;75.60
27114;DHT22;14648;49.730;8.614;2023-11-19T02:31:08;10.30;75.70
27114;DHT22;14648;49.730;8.614;2023-11-19T02:33:36;10.30;75.60
27114;DHT22;14648;49.730;8.614;2023-11-19T02:36:04;10.40;75.50
27114;DHT22;14648;49.730;8.614;2023-11-19T02:38:30;10.40;75.40
27114;DHT22;14648;49.730;8.614;2023-11-19T02:40:56;10.40;75.50
27114;DHT22;14648;49.730;8.614;2023-11-19T02:43:22;10.40;75.60
27114;DHT22;14648;49.730;8.614;2023-11-19T02:45:48;10.40;75.80
27114;DHT22;14648;49.730;8.614;2023-11-19T02:48:14;10.40;75.70
27114;DHT22;14648;49.730;8.614;2023-11-19T02:50:42;10.40;75.70
27114;DHT22;14648;49.730;8.614;2023-11-19T02:53:08;10.40;75.80
27114;DHT22;14648;49.730;8.614;2023-11-19T02:55:33;10.40;75.90
27114;DHT22;14648;49.730;8.614;2023-11-19T02:58:04;10.40;75.90
27114;DHT22;14648;49.730;8.614;2023-11-19T03:00:45;10.40;76.00
27114;DHT22;14648;49.730;8.614;2023-11-19T03:03:22;10.40;76.00
27114;DHT22;14648;49.730;8.614;2023-11-19T03:05:54;10.40;75.90
27114;DHT22;14648;49.730;8.614;2023-11-19T03:08:20;10.50;76.00
27114;DHT22;14648;49.730;8.614;2023-11-19T03:10:47;10.50;76.00
27114;DHT22;14648;49.730;8.614;2023-11-19T03:13:14;10.50;76.10
27114;DHT22;14648;49.730;8.614;2023-11-19T03:15:40;10.50;76.20
27114;DHT22;14648;49.730;8.614;2023-11-19T03:18:11;10.50;76.20
27114;DHT22;14648;49.730;8.614;2023-11-19T03:20:36;10.50;76.20
27114;DHT22;14648;49.730;8.614;2023-11-19T03:23:02;10.50;76.20
27114;DHT22;14648;49.730;8.614;2023-11-19T03:25:28;10.50;76.20
27114;DHT22;14648;49.730;8.614;2023-11-19T03:28:02;10.50;76.20
27114;DHT22;14648;49.730;8.614;2023-11-19T03:30:29;10.60;76.30
27114;DHT22;14648;49.730;8.614;2023-11-19T03:32:56;10.60;76.40
27114;DHT22;14648;49.730;8.614;2023-11-19T03:35:23;10.60;76.40
27114;DHT22;14648;49.730;8.614;2023-11-19T03:37:49;10.60;76.40
27114;DHT22;14648;49.730;8.614;2023-11-19T03:40:16;10.60;76.40
27114;DHT22;14648;49.730;8.614;2023-11-19T03:42:44;10.60;76.50
27114;DHT22;14648;49.730;8.614;2023-11-19T03:45:11;10.60;76.50
27114;DHT22;14648;49.730;8.614;2023-11-19T03:47:37;10.60;76.50
27114;DHT22;14648;49.730;8.614;2023-11-19T03:50:04;10.60;76.40
27114;DHT22;14648;49.730;8.614;2023-11-19T03:52:31;10.60;76.80
27114;DHT22;14648;49.730;8.614;2023-11-19T03:54:56;10.60;76.50
27114;DHT22;14648;49.730;8.614;2023-11-19T03:57:23;10.70;76.60
27114;DHT22;14648;49.730;8.614;2023-11-19T03:59:49;10.70;76.50
27114;DHT22;14648;49.730;8.614;2023-11-19T04:02:15;10.70;76.50
27114;DHT22;14648;49.730;8.614;2023-11-19T04:04:41;10.80;76.50
27114;DHT22;14648;49.730;8.614;2023-11-19T04:07:07;10.80;76.50
27114;DHT22;14648;49.730;8.614;2023-11-19T04:09:33;10.80;76.50
27114;DHT22;14648;49.730;8.614;2023-11-19T04:12:00;10.80;76.60
27114;DHT22;14648;49.730;8.614;2023-11-19T04:14:27;10.80;76.50
27114;DHT22;14648;49.730;8.614;2023-11-19T04:16:53;10.90;76.60
27114;DHT22;14648;49.730;8.614;2023-11-19T04:19:19;10.90;76.50
27114;DHT22;14648;49.730;8.614;2023-11-19T04:21:45;10.90;76.50
27114;DHT22;14648;49.730;8.614;2023-11-19T04:24:12;11.00;76.50
27114;DHT22;14648;49.730;8.614;2023-11-19T04:26:45;11.00;76.50
27114;DHT22;14648;49.730;8.614;2023-11-19T04:29:15;11.00;76.60
27114;DHT22;14648;49.730;8.614;2023-11-19T04:31:43;11.10;76.70
27114;DHT22;14648;49.730;8.614;2023-11-19T04:34:10;11.10;76.60
27114;DHT22;14648;49.730;8.614;2023-11-19T04:36:36;11.10;76.60
27114;DHT22;14648;49.730;8.614;2023-11-19T04:39:03;11.10;76.60
27114;DHT22;14648;49.730;8.614;2023-11-19T04:41:47;11.10;76.70
27114;DHT22;14648;49.730;8.614;2023-11-19T04:44:19;11.10;76.80
27114;DHT22;14648;49.730;8.614;2023-11-19T04:46:45;11.20;76.80
27114;DHT22;14648;49.730;8.614;2023-11-19T04:49:12;11.20;76.80
27114;DHT22;14648;49.730;8.614;2023-11-19T04:51:40;11.30;76.80
27114;DHT22;14648;49.730;8.614;2023-11-19T04:54:07;11.20;76.80
27114;DHT22;14648;49.730;8.614;2023-11-19T04:56:36;11.30;77.00
27114;DHT22;14648;49.730;8.614;2023-11-19T04:59:05;11.30;76.90
27114;DHT22;14648;49.730;8.614;2023-11-19T05:01:35;11.30;76.90
27114;DHT22;14648;49.730;8.614;2023-11-19T05:04:01;11.30;77.00
27114;DHT22;14648;49.730;8.614;2023-11-19T05:06:31;11.30;77.10
27114;DHT22;14648;49.730;8.614;2023-11-19T05:08:58;11.30;77.10
27114;DHT22;14648;49.730;8.614;2023-11-19T05:11:26;11.40;77.20
27114;DHT22;14648;49.730;8.614;2023-11-19T05:13:54;11.40;77.30
27114;DHT22;14648;49.730;8.614;2023-11-19T05:16:19;11.40;77.20
27114;DHT22;14648;49.730;8.614;2023-11-19T05:18:46;11.50;77.20
27114;DHT22;14648;49.730;8.614;2023-11-19T05:21:12;11.50;77.20
27114;DHT22;14648;49.730;8.614;2023-11-19T05:23:38;11.50;77.10
27114;DHT22;14648;49.730;8.614;2023-11-19T05:26:05;11.50;77.20
27114;DHT22;14648;49.730;8.614;2023-11-19T05:28:30;11.60;77.20
27114;DHT22;14648;49.730;8.614;2023-11-19T05:30:56;11.60;77.10
27114;DHT22;14648;49.730;8.614;2023-11-19T05:33:22;11.60;76.90
27114;DHT22;14648;49.730;8.614;2023-11-19T05:35:48;11.60;77.10
27114;DHT22;14648;49.730;8.614;2023-11-19T05:38:14;11.60;77.30
27114;DHT22;14648;49.730;8.614;2023-11-19T05:40:41;11.70;77.20
27114;DHT22;14648;49.730;8.614;2023-11-19T05:43:07;11.70;77.20
27114;DHT22;14648;49.730;8.614;2023-11-19T05:45:33;11.70;77.20
27114;DHT22;14648;49.730;8.614;2023-11-19T05:47:58;11.70;77.20
27114;DHT22;14648;49.730;8.614;2023-11-19T05:50:24;11.80;77.30
27114;DHT22;14648;49.730;8.614;2023-11-19T05:52:50;11.80;77.20
27114;DHT22;14648;49.730;8.614;2023-11-19T05:55:18;11.80;77.20
27114;DHT22;14648;49.730;8.614;2023-11-19T05:57:44;11.90;77.30
27114;DHT22;14648;49.730;8.614;2023-11-19T06:00:10;11.90;77.20
27114;DHT22;14648;49.730;8.614;2023-11-19T06:02:38;11.90;77.30
27114;DHT22;14648;49.730;8.614;2023-11-19T06:05:04;11.90;77.30
27114;DHT22;14648;49.730;8.614;2023-11-19T06:07:32;12.00;77.40
27114;DHT22;14648;49.730;8.614;2023-11-19T06:09:58;12.00;77.50
27114;DHT22;14648;49.730;8.614;2023-11-19T06:12:24;12.00;77.50
27114;DHT22;14648;49.730;8.614;2023-11-19T06:14:50;12.00;77.50
27114;DHT22;14648;49.730;8.614;2023-11-19T06:17:15;12.00;77.60
27114;DHT22;14648;49.730;8.614;2023-11-19T06:19:41;12.00;77.60
27114;DHT22;14648;49.730;8.614;2023-11-19T06:22:07;12.00;77.60
27114;DHT22;14648;49.730;8.614;2023-11-19T06:24:32;12.00;77.80
27114;DHT22;14648;49.730;8.614;2023-11-19T06:26:58;12.00;77.80
27114;DHT22;14648;49.730;8.614;2023-11-19T06:29:24;12.10;77.90
27114;DHT22;14648;49.730;8.614;2023-11-19T06:31:50;12.10;77.90
27114;DHT22;14648;49.730;8.614;2023-11-19T06:34:16;12.10;78.00
27114;DHT22;14648;49.730;8.614;2023-11-19T06:36:42;12.10;78.10
27114;DHT22;14648;49.730;8.614;2023-11-19T06:39:10;12.20;78.10
27114;DHT22;14648;49.730;8.614;2023-11-19T06:41:36;12.10;78.10
27114;DHT22;14648;49.730;8.614;2023-11-19T06:44:04;12.20;78.10
27114;DHT22;14648;49.730;8.614;2023-11-19T06:46:30;12.10;78.10
27114;DHT22;14648;49.730;8.614;2023-11-19T06:48:57;12.10;78.20
27114;DHT22;14648;49.730;8.614;2023-11-19T06:51:23;12.10;78.40
27114;DHT22;14648;49.730;8.614;2023-11-19T06:53:50;12.10;78.40
27114;DHT22;14648;49.730;8.614;2023-11-19T06:56:23;12.20;78.90
27114;DHT22;14648;49.730;8.614;2023-11-19T06:58:52;12.20;78.60
27114;DHT22;14648;49.730;8.614;2023-11-19T07:01:19;12.30;78.50
27114;DHT22;14648;49.730;8.614;2023-11-19T07:03:45;12.30;78.20
27114;DHT22;14648;49.730;8.614;2023-11-19T07:06:11;12.40;78.10
27114;DHT22;14648;49.730;8.614;2023-11-19T07:08:39;12.40;78.30
27114;DHT22;14648;49.730;8.614;2023-11-19T07:11:06;12.40;78.10
27114;DHT22;14648;49.730;8.614;2023-11-19T07:13:32;12.40;78.20
27114;DHT22;14648;49.730;8.614;2023-11-19T07:15:57;12.50;78.30
27114;DHT22;14648;49.730;8.614;2023-11-19T07:18:23;12.50;78.20
27114;DHT22;14648;49.730;8.614;2023-11-19T07:20:50;12.60;78.30
27114;DHT22;14648;49.730;8.614;2023-11-19T07:23:16;12.50;78.20
27114;DHT22;14648;49.730;8.614;2023-11-19T07:25:45;12.60;78.20
27114;DHT22;14648;49.730;8.614;2023-11-19T07:28:13;12.60;78.20
27114;DHT22;14648;49.730;8.614;2023-11-19T07:30:38;12.60;78.30
27114;DHT22;14648;49.730;8.614;2023-11-19T07:33:04;12.60;78.30
27114;DHT22;14648;49.730;8.614;2023-11-19T07:35:31;12.60;78.30
27114;DHT22;14648;49.730;8.614;2023-11-19T07:37:57;12.70;78.30
27114;DHT22;14648;49.730;8.614;2023-11-19T07:40:23;12.70;78.40
27114;DHT22;14648;49.730;8.614;2023-11-19T07:42:50;12.70;78.40
27114;DHT22;14648;49.730;8.614;2023-11-19T07:45:16;12.70;78.50
27114;DHT22;14648;49.730;8.614;2023-11-19T07:47:43;12.70;78.40
27114;DHT22;14648;49.730;8.614;2023-11-19T07:50:10;12.70;78.30
27114;DHT22;14648;49.730;8.614;2023-11-19T07:52:39;12.70;78.50
27114;DHT22;14648;49.730;8.614;2023-11-19T07:55:05;12.70;78.50
27114;DHT22;14648;49.730;8.614;2023-11-19T07:57:30;12.70;78.50
27114;DHT22;14648;49.730;8.614;2023-11-19T07:59:57;12.70;78.50
27114;DHT22;14648;49.730;8.614;2023-11-19T08:02:23;12.70;78.90
27114;DHT22;14648;49.730;8.614;2023-11-19T08:04:50;12.70;78.70
27114;DHT22;14648;49.730;8.614;2023-11-19T08:07:20;12.70;78.70
27114;DHT22;14648;49.730;8.614;2023-11-19T08:09:47;12.60;78.60
27114;DHT22;14648;49.730;8.614;2023-11-19T08:12:13;12.70;78.90
27114;DHT22;14648;49.730;8.614;2023-11-19T08:14:43;12.70;78.70
27114;DHT22;14648;49.730;8.614;2023-11-19T08:17:09;12.80;78.60
27114;DHT22;14648;49.730;8.614;2023-11-19T08:19:35;12.80;78.50
27114;DHT22;14648;49.730;8.614;2023-11-19T08:22:01;12.90;78.50
27114;DHT22;14648;49.730;8.614;2023-11-19T08:24:27;12.90;78.40
27114;DHT22;14648;49.730;8.614;2023-11-19T08:26:53;12.90;78.30
27114;DHT22;14648;49.730;8.614;2023-11-19T08:29:19;12.90;78.40
27114;DHT22;14648;49.730;8.614;2023-11-19T08:31:45;12.90;78.30
27114;DHT22;14648;49.730;8.614;2023-11-19T08:34:11;13.00;78.50
27114;DHT22;14648;49.730;8.614;2023-11-19T08:36:37;13.00;78.50
27114;DHT22;14648;49.730;8.614;2023-11-19T08:39:03;13.00;78.50
27114;DHT22;14648;49.730;8.614;2023-11-19T08:41:28;13.00;78.60
27114;DHT22;14648;49.730;8.614;2023-11-19T08:43:54;13.00;78.80
27114;DHT22;14648;49.730;8.614;2023-11-19T08:46:20;13.00;78.90
27114;DHT22;14648;49.730;8.614;2023-11-19T08:48:45;13.10;79.00
27114;DHT22;14648;49.730;8.614;2023-11-19T08:51:12;13.10;78.90
27114;DHT22;14648;49.730;8.614;2023-11-19T08:53:38;13.20;78.90
27114;DHT22;14648;49.730;8.614;2023-11-19T08:56:04;13.20;78.90
27114;DHT22;14648;49.730;8.614;2023-11-19T08:58:30;13.20;78.80
27114;DHT22;14648;49.730;8.614;2023-11-19T09:00:56;13.30;78.70
27114;DHT22;14648;49.730;8.614;2023-11-19T09:03:22;13.30;78.60
27114;DHT22;14648;49.730;8.614;2023-11-19T09:05:48;13.30;78.60
27114;DHT22;14648;49.730;8.614;2023-11-19T09:08:14;13.40;78.80
27114;DHT22;14648;49.730;8.614;2023-11-19T09:10:39;13.40;78.70
27114;DHT22;14648;49.730;8.614;2023-11-19T09:13:05;13.40;78.80
27114;DHT22;14648;49.730;8.614;2023-11-19T09:15:31;13.50;78.70
27114;DHT22;14648;49.730;8.614;2023-11-19T09:17:56;13.60;78.60
27114;DHT22;14648;49.730;8.614;2023-11-19T09:20:22;13.60;78.50
27114;DHT22;14648;49.730;8.614;2023-11-19T09:22:48;13.60;78.50
27114;DHT22;14648;49.730;8.614;2023-11-19T09:25:13;13.60;78.50
27114;DHT22;14648;49.730;8.614;2023-11-19T09:27:43;13.60;78.60
27114;DHT22;14648;49.730;8.614;2023-11-19T09:30:09;13.70;78.80
27114;DHT22;14648;49.730;8.614;2023-11-19T09:32:36;13.70;78.90
27114;DHT22;14648;49.730;8.614;2023-11-19T09:35:03;13.60;78.90
27114;DHT22;14648;49.730;8.614;2023-11-19T09:37:29;13.70;79.00
27114;DHT22;14648;49.730;8.614;2023-11-19T09:39:55;13.70;79.00
27114;DHT22;14648;49.730;8.614;2023-11-19T09:42:20;13.80;79.10
27114;DHT22;14648;49.730;8.614;2023-11-19T09:44:47;13.80;78.90
27114;DHT22;14648;49.730;8.614;2023-11-19T09:47:14;13.80;78.90
27114;DHT22;14648;49.730;8.614;2023-11-19T09:49:40;13.80;78.80
27114;DHT22;14648;49.730;8.614;2023-11-19T09:52:07;13.80;78.80
27114;DHT22;14648;49.730;8.614;2023-11-19T09:54:32;13.90;78.90
27114;DHT22;14648;49.730;8.614;2023-11-19T09:56:59;13.80;78.80
27114;DHT22;14648;49.730;8.614;2023-11-19T09:59:29;13.90;78.70
27114;DHT22;14648;49.730;8.614;2023-11-19T10:01:56;13.90;78.60
27114;DHT22;14648;49.730;8.614;2023-11-19T10:04:22;13.90;78.60
27114;DHT22;14648;49.730;8.614;2023-11-19T10:06:50;13.90;78.50
27114;DHT22;14648;49.730;8.614;2023-11-19T10:09:16;13.90;78.50
27114;DHT22;14648;49.730;8.614;2023-11-19T10:11:42;13.90;78.70
27114;DHT22;14648;49.730;8.614;2023-11-19T10:14:09;13.90;78.80
27114;DHT22;14648;49.730;8.614;2023-11-19T10:16:35;13.80;78.70
27114;DHT22;14648;49.730;8.614;2023-11-19T10:19:01;13.80;78.70
27114;DHT22;14648;49.730;8.614;2023-11-19T10:21:27;13.80;78.80
27114;DHT22;14648;49.730;8.614;2023-11-19T10:23:57;13.80;79.60
27114;DHT22;14648;49.730;8.614;2023-11-19T10:26:26;13.80;78.90
27114;DHT22;14648;49.730;8.614;2023-11-19T10:28:52;13.80;79.10
27114;DHT22;14648;49.730;8.614;2023-11-19T10:31:19;13.90;79.00
27114;DHT22;14648;49.730;8.614;2023-11-19T10:33:52;13.90;79.00
27114;DHT22;14648;49.730;8.614;2023-11-19T10:36:18;13.90;79.00
27114;DHT22;14648;49.730;8.614;2023-11-19T10:38:54;13.90;78.90
27114;DHT22;14648;49.730;8.614;2023-11-19T10:41:30;13.90;79.00
27114;DHT22;14648;49.730;8.614;2023-11-19T10:43:57;13.90;79.10
27114;DHT22;14648;49.730;8.614;2023-11-19T10:46:39;14.00;79.00
27114;DHT22;14648;49.730;8.614;2023-11-19T10:49:09;14.00;79.10
27114;DHT22;14648;49.730;8.614;2023-11-19T10:51:36;14.00;79.10
27114;DHT22;14648;49.730;8.614;2023-11-19T10:54:03;14.00;79.10
27114;DHT22;14648;49.730;8.614;2023-11-19T10:56:34;14.00;79.10
27114;DHT22;14648;49.730;8.614;2023-11-19T10:59:00;14.00;79.20
27114;DHT22;14648;49.730;8.614;2023-11-19T11:01:32;14.10;79.40
27114;DHT22;14648;49.730;8.614;2023-11-19T11:04:03;14.10;79.50
27114;DHT22;14648;49.730;8.614;2023-11-19T11:06:30;14.10;79.50
27114;DHT22;14648;49.730;8.614;2023-11-19T11:08:56;14.20;79.50
27114;DHT22;14648;49.730;8.614;2023-11-19T11:11:23;14.20;79.50
27114;DHT22;14648;49.730;8.614;2023-11-19T11:13:50;14.30;79.50
27114;DHT22;14648;49.730;8.614;2023-11-19T11:16:19;14.40;79.30
27114;DHT22;14648;49.730;8.614;2023-11-19T11:18:47;14.50;79.30
27114;DHT22;14648;49.730;8.614;2023-11-19T11:21:21;14.60;79.00
27114;DHT22;14648;49.730;8.614;2023-11-19T11:34:34;14.80;78.20
27114;DHT22;14648;49.730;8.614;2023-11-19T11:37:34;14.80;78.20
27114;DHT22;14648;49.730;8.614;2023-11-19T11:40:04;14.80;78.10
27114;DHT22;14648;49.730;8.614;2023-11-19T11:42:36;14.80;78.30
27114;DHT22;14648;49.730;8.614;2023-11-19T11:45:13;14.80;78.20
27114;DHT22;14648;49.730;8.614;2023-11-19T11:50:13;14.90;78.20
27114;DHT22;14648;49.730;8.614;2023-11-19T11:58:19;14.80;77.90
27114;DHT22;14648;49.730;8.614;2023-11-19T12:00:47;14.90;78.00
27114;DHT22;14648;49.730;8.614;2023-11-19T12:03:13;14.90;78.00
27114;DHT22;14648;49.730;8.614;2023-11-19T12:05:44;14.90;77.90
27114;DHT22;14648;49.730;8.614;2023-11-19T12:08:12;14.90;77.80
27114;DHT22;14648;49.730;8.614;2023-11-19T12:10:45;15.00;77.80
27114;DHT22;14648;49.730;8.614;2023-11-19T12:13:16;15.00;77.60
27114;DHT22;14648;49.730;8.614;2023-11-19T12:18:26;15.00;77.20
27114;DHT22;14648;49.730;8.614;2023-11-19T12:20:54;15.00;76.90
27114;DHT22;14648;49.730;8.614;2023-11-19T12:23:20;15.00;76.70
27114;DHT22;14648;49.730;8.614;2023-11-19T12:25:46;15.00;76.70
27114;DHT22;14648;49.730;8.614;2023-11-19T12:28:12;15.00;76.50
27114;DHT22;14648;49.730;8.614;2023-11-19T12:30:39;14.90;76.30
27114;DHT22;14648;49.730;8.614;2023-11-19T12:33:09;15.00;76.20
27114;DHT22;14648;49.730;8.614;2023-11-19T12:35:46;15.00;75.90
27114;DHT22;14648;49.730;8.614;2023-11-19T12:38:23;15.00;75.40
27114;DHT22;14648;49.730;8.614;2023-11-19T12:41:06;14.90;75.10
27114;DHT22;14648;49.730;8.614;2023-11-19T12:43:34;14.90;74.90
27114;DHT22;14648;49.730;8.614;2023-11-19T12:46:00;14.90;74.70
27114;DHT22;14648;49.730;8.614;2023-11-19T12:48:26;14.90;74.70
27114;DHT22;14648;49.730;8.614;2023-11-19T12:50:56;14.90;74.70
27114;DHT22;14648;49.730;8.614;2023-11-19T12:53:24;15.00;74.40
27114;DHT22;14648;49.730;8.614;2023-11-19T12:55:51;15.00;74.20
27114;DHT22;14648;49.730;8.614;2023-11-19T12:58:36;15.10;74.20
27114;DHT22;14648;49.730;8.614;2023-11-19T13:01:07;15.40;74.10
27114;DHT22;14648;49.730;8.614;2023-11-19T13:03:36;15.50;74.30
27114;DHT22;14648;49.730;8.614;2023-11-19T13:08:43;15.90;74.50
27114;DHT22;14648;49.730;8.614;2023-11-19T13:11:12;16.10;74.30
27114;DHT22;14648;49.730;8.614;2023-11-19T13:14:01;16.20;74.30
27114;DHT22;14648;49.730;8.614;2023-11-19T13:16:29;16.50;74.10
27114;DHT22;14648;49.730;8.614;2023-11-19T13:18:55;16.60;74.10
27114;DHT22;14648;49.730;8.614;2023-11-19T13:21:22;16.70;73.80
27114;DHT22;14648;49.730;8.614;2023-11-19T13:23:48;16.90;73.70
27114;DHT22;14648;49.730;8.614;2023-11-19T13:26:15;16.90;73.90
27114;DHT22;14648;49.730;8.614;2023-11-19T13:28:41;17.10;73.90
27114;DHT22;14648;49.730;8.614;2023-11-19T13:31:07;17.20;73.70
27114;DHT22;14648;49.730;8.614;2023-11-19T13:33:35;17.20;73.60
27114;DHT22;14648;49.730;8.614;2023-11-19T13:36:02;17.30;73.70
27114;DHT22;14648;49.730;8.614;2023-11-19T13:38:35;17.30;73.50
27114;DHT22;14648;49.730;8.614;2023-11-19T13:41:02;17.40;73.20
27114;DHT22;14648;49.730;8.614;2023-11-19T13:43:28;17.30;72.80
27114;DHT22;14648;49.730;8.614;2023-11-19T13:45:55;17.30;72.70
27114;DHT22;14648;49.730;8.614;2023-11-19T13:48:21;17.20;72.30
27114;DHT22;14648;49.730;8.614;2023-11-19T13:50:47;17.00;71.90
27114;DHT22;14648;49.730;8.614;2023-11-19T13:53:13;16.90;72.50
27114;DHT22;14648;49.730;8.614;2023-11-19T13:55:39;16.70;71.60
27114;DHT22;14648;49.730;8.614;2023-11-19T13:58:04;16.60;71.10
27114;DHT22;14648;49.730;8.614;2023-11-19T14:00:30;16.50;70.80
27114;DHT22;14648;49.730;8.614;2023-11-19T14:02:56;16.50;70.50
27114;DHT22;14648;49.730;8.614;2023-11-19T14:05:21;16.40;70.00
27114;DHT22;14648;49.730;8.614;2023-11-19T14:07:48;16.30;69.70
27114;DHT22;14648;49.730;8.614;2023-11-19T14:10:14;16.30;69.40
27114;DHT22;14648;49.730;8.614;2023-11-19T14:12:41;16.30;69.20
27114;DHT22;14648;49.730;8.614;2023-11-19T14:15:08;16.40;69.00
27114;DHT22;14648;49.730;8.614;2023-11-19T14:17:35;16.40;68.80
27114;DHT22;14648;49.730;8.614;2023-11-19T14:20:02;16.40;68.70
27114;DHT22;14648;49.730;8.614;2023-11-19T14:22:41;16.50;69.30
27114;DHT22;14648;49.730;8.614;2023-11-19T14:25:08;16.50;68.10
27114;DHT22;14648;49.730;8.614;2023-11-19T14:27:39;16.50;67.70
27114;DHT22;14648;49.730;8.614;2023-11-19T14:30:06;16.50;67.50
27114;DHT22;14648;49.730;8.614;2023-11-19T14:32:35;16.40;67.40
27114;DHT22;14648;49.730;8.614;2023-11-19T14:35:01;16.40;67.30
27114;DHT22;14648;49.730;8.614;2023-11-19T14:37:26;16.40;67.30
27114;DHT22;14648;49.730;8.614;2023-11-19T14:39:52;16.40;67.30
27114;DHT22;14648;49.730;8.614;2023-11-19T14:42:18;16.40;67.20
27114;DHT22;14648;49.730;8.614;2023-11-19T14:44:43;16.40;67.10
27114;DHT22;14648;49.730;8.614;2023-11-19T14:47:09;16.40;67.10
27114;DHT22;14648;49.730;8.614;2023-11-19T14:49:35;16.30;67.20
27114;DHT22;14648;49.730;8.614;2023-11-19T14:52:05;16.30;67.00
27114;DHT22;14648;49.730;8.614;2023-11-19T14:54:31;16.30;67.00
27114;DHT22;14648;49.730;8.614;2023-11-19T14:56:57;16.20;66.90
27114;DHT22;14648;49.730;8.614;2023-11-19T14:59:27;16.10;66.70
27114;DHT22;14648;49.730;8.614;2023-11-19T15:01:53;16.10;66.40
27114;DHT22;14648;49.730;8.614;2023-11-19T15:04:19;16.00;66.30
27114;DHT22;14648;49.730;8.614;2023-11-19T15:06:44;15.90;66.20
27114;DHT22;14648;49.730;8.614;2023-11-19T15:09:10;15.90;66.20
27114;DHT22;14648;49.730;8.614;2023-11-19T15:11:42;15.80;66.00
27114;DHT22;14648;49.730;8.614;2023-11-19T15:14:14;15.80;65.70
27114;DHT22;14648;49.730;8.614;2023-11-19T15:16:42;15.70;65.60
27114;DHT22;14648;49.730;8.614;2023-11-19T15:19:08;15.60;65.50
27114;DHT22;14648;49.730;8.614;2023-11-19T15:21:34;15.60;65.50
27114;DHT22;14648;49.730;8.614;2023-11-19T15:24:00;15.50;65.50
27114;DHT22;14648;49.730;8.614;2023-11-19T15:26:36;15.40;65.40
27114;DHT22;14648;49.730;8.614;2023-11-19T15:29:03;15.40;65.30
27114;DHT22;14648;49.730;8.614;2023-11-19T15:31:29;15.30;65.30
27114;DHT22;14648;49.730;8.614;2023-11-19T15:33:55;15.20;65.10
27114;DHT22;14648;49.730;8.614;2023-11-19T15:36:21;15.20;65.00
27114;DHT22;14648;49.730;8.614;2023-11-19T15:38:47;15.10;64.90
27114;DHT22;14648;49.730;8.614;2023-11-19T15:41:13;15.00;64.80
27114;DHT22;14648;49.730;8.614;2023-11-19T15:43:40;15.00;64.80
27114;DHT22;14648;49.730;8.614;2023-11-19T15:46:07;15.00;64.70
27114;DHT22;14648;49.730;8.614;2023-11-19T15:48:33;14.90;64.60
27114;DHT22;14648;49.730;8.614;2023-11-19T15:50:59;14.80;64.50
27114;DHT22;14648;49.730;8.614;2023-11-19T15:53:25;14.80;64.50
27114;DHT22;14648;49.730;8.614;2023-11-19T15:55:51;14.80;64.40
27114;DHT22;14648;49.730;8.614;2023-11-19T15:58:20;14.70;64.40